• Join FlightAware (Why Join?)
  • Login
  • US Flag 
04:44PM EST


 

Airport Tracker/Info


-or-


 

Live Flight TrackerFlight Track Log ✈ CES5862 ✈ 26-Oct-2013 ✈ ZUJZ / JZH - ZUUU / CTU

Flight Track Log - Related Links

Times and Time Zones

All times are in EDT time to prevent confusion due to time zone crossing. See the CES5862 flight status page for this flight to view local times or setup timezone preferences in your user account.

Time Position Orientation Groundspeed Altitude Reporting Facility
EDT Latitude Longitude Course Direction KTS MPH feet Rate Location/Type
09:42AM 32.0993 103.7723 174° South  Level Estimated
09:42AM 32.6000 104.3080 174° South 352 405 24,600  Level FlightAware
09:43AM 32.0304 103.7803 174° South  Level Estimated
09:43AM 32.5360 104.2960 189° South 337 388 24,600  Level FlightAware
09:44AM 31.9615 103.7884 174° South  Level Estimated
09:44AM 32.4800 104.2630 206° Southwest 337 388 24,600  Level FlightAware
09:44AM 32.4410 104.2560 189° South 341 392 24,600  Level FlightAware
09:45AM 32.3780 104.2600 177° South 339 390 24,600  Level FlightAware
09:45AM 32.3340 104.2390 202° Southwest 321 369 24,600  Level FlightAware
09:46AM 32.2830 104.1810 224° Southwest 319 367 24,600  Level FlightAware
09:47AM 32.2290 104.1170 225° Southwest 319 367 24,600  Level FlightAware
09:48AM 32.1830 104.0640 224° Southwest 317 365 24,600  Level FlightAware
09:48AM 32.1360 104.0120 223° Southwest 313 360 24,600  Level FlightAware
09:49AM 32.0900 103.9590 224° Southwest 311 358 24,600  Level FlightAware
09:50AM 32.0140 103.8830 220° Southwest 326 375 24,600  Level FlightAware
09:51AM 31.9880 103.8770 191° South 339 390 24,600  Level FlightAware
09:52AM 31.8960 103.9220 157° South 352 405 24,600  Level FlightAware
09:52AM 31.8420 103.9550 153° Southeast 351 404 24,600  Level FlightAware
09:53AM 31.7880 103.9880 153° Southeast 353 406 24,600  Level FlightAware
09:54AM 31.7180 104.0310 152° Southeast 353 406 24,600  Level FlightAware
09:54AM 31.6560 104.0690 152° Southeast 356 410 24,600  Level FlightAware
09:55AM 31.5940 104.1060 153° Southeast 358 412 24,600  Level FlightAware
09:56AM 31.5540 104.1310 152° Southeast 360 414 24,600  Level FlightAware
09:56AM 31.4940 104.1680 152° Southeast 361 415 24,600  Level FlightAware
09:57AM 31.4350 104.2030 153° Southeast 361 415 24,600 -960 Level FlightAware
09:58AM 31.3680 104.2450 152° Southeast 360 414 23,300 -1,680 Descending FlightAware
09:58AM 31.2930 104.2890 153° Southeast 355 409 22,000 -1,500 Descending FlightAware
09:59AM 31.2400 104.3220 152° Southeast 346 398 21,200 -1,380 Descending FlightAware
10:00AM 31.1900 104.3520 153° Southeast 336 387 20,400 -1,680 Descending FlightAware
10:00AM 31.1330 104.3670 167° South 327 376 19,100 -1,320 Descending FlightAware
10:01AM 31.0840 104.3210 219° Southwest 355 409 18,700 -300 Descending FlightAware
10:02AM 31.0400 104.2580 231° Southwest 369 425 18,700  Level FlightAware
10:02AM 31.0020 104.2020 232° Southwest 339 390 18,700 -540 Level FlightAware
10:03AM 30.9690 104.1520 232° Southwest 319 367 18,100 -840 Descending FlightAware
10:04AM 30.9300 104.0950 231° Southwest 296 341 17,600 -900 Descending FlightAware
10:04AM 30.8910 104.0390 231° Southwest 284 327 16,800 -1,140 Descending FlightAware
10:05AM 30.8570 103.9890 232° Southwest 278 320 16,000 -1,260 Descending FlightAware
10:06AM 30.8250 103.9420 232° Southwest 275 316 15,100 -1,260 Descending FlightAware
10:06AM 30.7990 103.9050 231° Southwest 270 311 14,500 -1,260 Descending FlightAware
10:07AM 30.7720 103.8660 231° Southwest 271 312 13,700 -1,500 Descending FlightAware
10:08AM 30.7360 103.8140 231° Southwest 276 318 12,600 -1,380 Descending FlightAware
10:08AM 30.7050 103.7690 231° Southwest 274 315 11,800 -1,200 Descending FlightAware
10:09AM 30.6770 103.7280 232° Southwest 270 311 11,100 -1,320 Descending FlightAware
10:10AM 30.6350 103.6980 212° Southwest 270 311 10,200 -1,020 Descending FlightAware
10:10AM 30.5790 103.7190 162° South 254 292 9,600 -720 Descending FlightAware
10:11AM 30.5680 103.7240 159° South 249 287 9,500 -660 Descending FlightAware
10:12AM 30.4900 103.7600 158° South 223 257 8,700 -600 Descending FlightAware
10:12AM 30.4610 103.7720 160° South 209 241 8,500 -720 Descending FlightAware
10:13AM 30.4340 103.7650 193° South 210 242 8,000 -780 Descending FlightAware
10:13AM 30.4020 103.7500 202° Southwest 196 226 7,700 -240 Descending FlightAware
10:14AM 30.3680 103.7340 202° Southwest 187 215 7,700 -360 Level FlightAware
10:15AM 30.3430 103.7220 203° Southwest 189 217 7,300 -900 Descending FlightAware
10:15AM 30.3130 103.7080 202° Southwest 190 219 6,700 -960 Descending FlightAware
10:16AM 30.2830 103.6960 199° South 187 215 6,200 -780 Descending FlightAware
10:16AM 30.2630 103.7200 134° Southeast 173 199 5,800 -360 Descending FlightAware
10:17AM 30.2520 103.7540 111° Southeast 171 197 5,800 -120 Level FlightAware
10:18AM 30.2580 103.7820 76° East 162 186 5,700 -480 Descending FlightAware
10:18AM 30.2820 103.8080 43° Northeast 167 192 5,200 -1,020 Descending FlightAware
10:19AM 30.3130 103.8240 24° Northeast 174 200 4,300 -1,140 Descending FlightAware
10:20AM 30.3410 103.8370 22° Northeast 169 194 3,700 -540 Descending FlightAware
10:20AM 30.3670 103.8490 22° Northeast 161 185 3,700 60 Level FlightAware
10:21AM 30.3910 103.8600 22° Northeast 162 186 3,800 60 Climbing FlightAware
10:22AM 30.4160 103.8710 21° North 163 188 3,800  Level FlightAware
10:22AM 30.4450 103.8850 23° Northeast 145 167 3,800 -300 Level FlightAware
10:23AM 30.4690 103.8960 22° Northeast 135 155 3,400 -660 Descending FlightAware
10:24AM 30.4900 103.9060 22° Northeast 133 153 3,000 -780 Descending FlightAware
10:24AM 30.5110 103.9160 22° Northeast 134 154 2,500 -780 Descending FlightAware
10:25AM 30.5410 103.9300 22° Northeast 135 155 1,900 -720 Descending FlightAware
10:26AM 30.5630 103.9400 21° North 140 161 1,500 -720 Descending FlightAware